createdAt,value
2019-01-23T00:00:58.330Z,10.35
2019-01-23T00:03:26.542Z,9.38
2019-01-23T00:05:54.371Z,9.25
2019-01-23T00:08:22.060Z,10.15
2019-01-23T00:10:49.862Z,9.13
2019-01-23T00:13:17.792Z,10.25
2019-01-23T00:15:45.658Z,10.20
2019-01-23T00:18:13.319Z,8.95
2019-01-23T00:20:41.045Z,10.13
2019-01-23T00:23:10.143Z,9.30
2019-01-23T00:25:39.201Z,9.90
2019-01-23T00:28:07.283Z,8.90
2019-01-23T00:30:35.352Z,9.05
2019-01-23T00:33:03.262Z,8.25
2019-01-23T00:35:31.100Z,8.90
2019-01-23T00:37:58.986Z,8.90
2019-01-23T00:40:26.741Z,9.05
2019-01-23T00:42:54.428Z,8.00
2019-01-23T00:45:22.223Z,8.10
2019-01-23T00:47:49.934Z,9.43
2019-01-23T00:50:19.961Z,7.87
2019-01-23T00:52:48.643Z,8.93
2019-01-23T00:55:16.495Z,9.45
2019-01-23T00:57:44.268Z,8.38
2019-01-23T01:00:15.464Z,9.20
2019-01-23T01:02:43.593Z,8.53
2019-01-23T01:05:12.363Z,9.25
2019-01-23T01:07:41.050Z,8.28
2019-01-23T01:10:11.437Z,9.23
2019-01-23T01:12:41.785Z,9.45
2019-01-23T01:15:13.485Z,9.50
2019-01-23T01:17:40.259Z,9.40
2019-01-23T01:20:10.600Z,9.88
2019-01-23T01:22:38.920Z,9.45
2019-01-23T01:25:12.770Z,9.58
2019-01-23T01:27:40.539Z,9.13
2019-01-23T01:30:14.962Z,9.25
2019-01-23T01:32:42.656Z,7.95
2019-01-23T01:35:13.325Z,9.20
2019-01-23T01:37:41.473Z,9.20
2019-01-23T01:40:12.425Z,9.95
2019-01-23T01:42:39.998Z,9.28
2019-01-23T01:45:08.146Z,8.33
2019-01-23T01:47:36.010Z,8.83
2019-01-23T01:50:08.092Z,8.98
2019-01-23T01:52:35.770Z,8.70
2019-01-23T01:55:04.565Z,10.05
2019-01-23T01:57:32.486Z,7.97
2019-01-23T02:00:00.268Z,9.50
2019-01-23T02:02:28.023Z,10.15
2019-01-23T02:04:55.723Z,10.40
2019-01-23T02:07:23.525Z,10.05
2019-01-23T02:09:51.316Z,9.85
2019-01-23T02:12:19.111Z,10.40
2019-01-23T02:14:46.786Z,10.30
2019-01-23T02:17:16.024Z,9.05
2019-01-23T02:19:43.785Z,10.48
2019-01-23T02:22:12.589Z,10.72
2019-01-23T02:24:40.328Z,10.75
2019-01-23T02:27:12.798Z,10.82
2019-01-23T02:29:40.598Z,12.35
2019-01-23T02:32:09.577Z,11.20
2019-01-23T02:34:40.766Z,12.63
2019-01-23T02:37:09.616Z,11.63
2019-01-23T02:39:37.635Z,10.58
2019-01-23T02:42:05.345Z,12.15
2019-01-23T02:44:33.025Z,11.93
2019-01-23T02:47:00.693Z,12.00
2019-01-23T02:49:28.715Z,13.03
2019-01-23T02:51:57.503Z,12.73
2019-01-23T02:54:25.207Z,12.03
2019-01-23T02:56:52.867Z,12.37
2019-01-23T02:59:21.543Z,11.50
2019-01-23T03:01:49.381Z,12.37
2019-01-23T03:04:18.384Z,12.00
2019-01-23T03:06:46.079Z,13.10
2019-01-23T03:09:16.168Z,11.90
2019-01-23T03:11:44.012Z,13.40
2019-01-23T03:14:14.385Z,12.18
2019-01-23T03:16:42.215Z,13.08
2019-01-23T03:19:09.968Z,13.53
2019-01-23T03:21:38.782Z,13.40
2019-01-23T03:24:06.778Z,12.50
2019-01-23T03:26:34.564Z,11.88
2019-01-23T03:29:02.300Z,12.18
2019-01-23T03:31:30.565Z,12.73
2019-01-23T03:33:58.462Z,12.30
2019-01-23T03:36:26.129Z,11.73
2019-01-23T03:38:55.511Z,12.50
2019-01-23T03:41:23.436Z,12.45
2019-01-23T03:43:51.120Z,12.98
2019-01-23T03:46:19.922Z,11.93
2019-01-23T03:48:47.751Z,13.20
2019-01-23T03:51:18.419Z,12.45
2019-01-23T03:53:46.368Z,14.25
2019-01-23T03:56:15.521Z,12.35
2019-01-23T03:58:43.314Z,14.20
2019-01-23T04:01:11.987Z,13.20
2019-01-23T04:03:40.017Z,13.25
2019-01-23T04:06:11.204Z,13.85
2019-01-23T04:08:39.297Z,13.20
2019-01-23T04:11:07.141Z,13.20
2019-01-23T04:13:34.995Z,12.30
2019-01-23T04:16:04.010Z,12.90
2019-01-23T04:18:32.092Z,12.55
2019-01-23T04:21:00.823Z,12.98
2019-01-23T04:23:28.531Z,13.78
2019-01-23T04:25:56.328Z,12.05
2019-01-23T04:28:24.012Z,11.97
2019-01-23T04:30:51.684Z,16.10
2019-01-23T04:33:21.689Z,14.50
2019-01-23T04:35:49.427Z,12.15
2019-01-23T04:38:18.190Z,14.10
2019-01-23T04:40:45.902Z,12.70
2019-01-23T04:43:13.600Z,14.75
2019-01-23T04:45:41.398Z,14.00
2019-01-23T04:48:09.244Z,14.68
2019-01-23T04:50:56.539Z,13.95
2019-01-23T04:53:34.062Z,14.95
2019-01-23T04:56:04.260Z,15.00
2019-01-23T04:58:32.273Z,16.05
2019-01-23T05:01:00.230Z,14.53
2019-01-23T05:03:27.905Z,13.55
2019-01-23T05:05:58.193Z,13.50
2019-01-23T05:08:26.177Z,15.95
2019-01-23T05:10:54.135Z,14.20
2019-01-23T05:13:21.852Z,12.58
2019-01-23T05:15:49.531Z,14.10
2019-01-23T05:18:21.314Z,13.45
2019-01-23T05:20:49.133Z,12.88
2019-01-23T05:23:17.996Z,13.50
2019-01-23T05:25:45.740Z,16.57
2019-01-23T05:28:13.633Z,12.82
2019-01-23T05:30:41.527Z,15.25
2019-01-23T05:33:09.345Z,16.20
2019-01-23T05:35:37.043Z,14.35
2019-01-23T05:38:05.213Z,14.23
2019-01-23T05:40:35.037Z,14.05
2019-01-23T05:43:02.841Z,15.98
2019-01-23T05:45:32.027Z,17.15
2019-01-23T05:47:59.692Z,18.30
2019-01-23T05:50:29.666Z,15.23
2019-01-23T05:52:57.581Z,16.20
2019-01-23T05:55:27.913Z,16.05
2019-01-23T05:57:55.934Z,17.15
2019-01-23T06:00:23.572Z,16.57
2019-01-23T06:02:52.029Z,20.45
2019-01-23T06:05:22.588Z,18.90
2019-01-23T06:07:50.283Z,21.40
2019-01-23T06:10:18.001Z,20.88
2019-01-23T06:12:45.969Z,22.85
2019-01-23T06:15:13.960Z,22.20
2019-01-23T06:17:41.869Z,23.15
2019-01-23T06:20:13.945Z,26.62
2019-01-23T06:22:41.716Z,22.58
2019-01-23T06:25:11.255Z,24.10
2019-01-23T06:27:39.304Z,24.20
2019-01-23T06:30:12.445Z,23.40
2019-01-23T06:32:40.242Z,27.70
2019-01-23T06:35:08.364Z,24.77
2019-01-23T06:37:36.068Z,26.07
2019-01-23T06:40:05.990Z,22.85
2019-01-23T06:42:34.060Z,23.90
2019-01-23T06:45:02.258Z,28.80
2019-01-23T06:47:30.010Z,28.32
2019-01-23T06:49:58.908Z,27.05
2019-01-23T06:52:27.224Z,25.27
2019-01-23T06:54:55.637Z,24.02
2019-01-23T06:57:23.355Z,25.68
2019-01-23T06:59:51.437Z,22.25
2019-01-23T07:02:19.524Z,20.95
2019-01-23T07:04:49.892Z,23.70
2019-01-23T07:07:20.086Z,24.90
2019-01-23T07:09:48.590Z,27.75
2019-01-23T07:12:16.434Z,33.10
2019-01-23T07:14:44.667Z,30.82
2019-01-23T07:17:12.448Z,24.43
2019-01-23T07:19:40.416Z,24.75
2019-01-23T07:22:11.020Z,19.30
2019-01-23T07:24:38.924Z,19.10
2019-01-23T07:27:07.674Z,19.40
2019-01-23T07:29:35.474Z,20.25
2019-01-23T07:32:04.159Z,19.75
2019-01-23T07:34:32.066Z,21.12
2019-01-23T07:37:05.806Z,25.35
2019-01-23T07:39:33.883Z,23.77
2019-01-23T07:42:01.853Z,23.15
2019-01-23T07:44:29.608Z,22.13
2019-01-23T07:46:57.545Z,27.00
2019-01-23T07:49:25.408Z,37.70
2019-01-23T07:51:53.358Z,38.08
2019-01-23T07:54:21.632Z,39.35
2019-01-23T07:56:52.084Z,42.62
2019-01-23T07:59:21.826Z,41.68
2019-01-23T08:01:49.737Z,40.23
2019-01-23T08:04:19.676Z,39.58
2019-01-23T08:06:47.382Z,37.83
2019-01-23T08:09:20.288Z,36.83
2019-01-23T08:11:48.068Z,43.45
2019-01-23T08:14:16.119Z,44.27
2019-01-23T08:16:44.154Z,45.00
2019-01-23T08:19:14.241Z,44.10
2019-01-23T08:21:42.034Z,48.90
2019-01-23T08:24:10.023Z,42.88
2019-01-23T08:26:38.080Z,48.58
2019-01-23T08:29:08.089Z,43.25
2019-01-23T08:31:35.876Z,43.05
2019-01-23T08:34:04.769Z,43.15
2019-01-23T08:36:32.974Z,38.70
2019-01-23T08:39:00.801Z,40.43
2019-01-23T08:41:28.558Z,41.40
2019-01-23T08:43:56.502Z,36.13
2019-01-23T08:46:24.295Z,40.45
2019-01-23T08:48:54.843Z,37.55
2019-01-23T08:51:22.902Z,35.73
2019-01-23T08:53:50.850Z,33.40
2019-01-23T08:56:22.731Z,31.10
2019-01-23T08:58:50.672Z,33.75
2019-01-23T09:01:18.489Z,26.55
2019-01-23T09:03:46.406Z,26.73
2019-01-23T09:06:14.371Z,27.05
2019-01-23T09:08:42.146Z,27.60
2019-01-23T09:11:12.179Z,27.82
2019-01-23T09:13:39.921Z,28.30
2019-01-23T09:16:07.740Z,30.68
2019-01-23T09:18:35.643Z,30.27
2019-01-23T09:21:03.725Z,28.67
2019-01-23T09:23:31.785Z,28.42
2019-01-23T09:25:59.569Z,31.50
2019-01-23T09:28:27.528Z,28.17
2019-01-23T09:31:49.165Z,29.45
2019-01-23T09:34:32.744Z,26.55
2019-01-23T09:37:29.202Z,27.17
2019-01-23T09:40:30.334Z,21.00
2019-01-23T09:43:38.637Z,18.05
2019-01-23T09:46:38.616Z,15.93
2019-01-23T09:49:25.395Z,13.32
2019-01-23T09:52:34.781Z,15.53
2019-01-23T09:55:03.019Z,12.45
2019-01-23T09:57:33.621Z,14.85
2019-01-23T10:00:01.542Z,13.78
2019-01-23T10:02:29.355Z,12.63
2019-01-23T10:04:57.263Z,12.78
2019-01-23T10:07:25.163Z,13.88
2019-01-23T10:09:52.900Z,13.78
2019-01-23T10:12:23.362Z,13.50
2019-01-23T10:14:51.150Z,16.80
2019-01-23T10:17:23.146Z,19.10
2019-01-23T10:19:51.040Z,18.80
2019-01-23T10:22:18.942Z,19.30
2019-01-23T10:24:46.720Z,18.50
2019-01-23T10:27:15.863Z,15.70
2019-01-23T10:29:43.574Z,13.90
2019-01-23T10:32:11.574Z,10.93
2019-01-23T10:34:39.365Z,12.65
2019-01-23T10:37:07.429Z,12.55
2019-01-23T10:39:35.515Z,12.30
2019-01-23T10:42:04.576Z,12.43
2019-01-23T10:44:32.468Z,13.90
2019-01-23T10:47:00.473Z,12.85
2019-01-23T10:49:28.236Z,13.70
2019-01-23T10:51:56.130Z,12.47
2019-01-23T10:54:23.956Z,12.68
2019-01-23T10:56:54.119Z,13.00
2019-01-23T10:59:22.945Z,11.85
2019-01-23T11:01:51.724Z,10.78
2019-01-23T11:04:20.853Z,10.32
2019-01-23T11:06:50.002Z,10.00
2019-01-23T11:09:17.891Z,12.00
2019-01-23T11:11:46.244Z,13.80
2019-01-23T11:14:16.463Z,13.60
2019-01-23T11:16:44.232Z,14.00
2019-01-23T11:19:12.195Z,14.18
2019-01-23T11:21:39.938Z,14.45
2019-01-23T11:24:07.846Z,13.10
2019-01-23T11:26:35.892Z,14.25
2019-01-23T11:29:05.890Z,12.75
2019-01-23T11:31:33.866Z,13.80
2019-01-23T11:34:01.741Z,13.68
2019-01-23T11:36:30.878Z,12.10
2019-01-23T11:38:58.735Z,11.68
2019-01-23T11:41:26.644Z,11.85
2019-01-23T11:43:54.883Z,11.85
2019-01-23T11:46:22.758Z,11.35
2019-01-23T11:48:50.661Z,11.63
2019-01-23T11:51:20.539Z,12.18
2019-01-23T11:53:48.340Z,11.25
2019-01-23T11:56:17.606Z,11.53
2019-01-23T11:58:45.331Z,13.83
2019-01-23T12:01:14.512Z,12.63
2019-01-23T12:03:42.370Z,14.53
2019-01-23T12:06:10.603Z,15.18
2019-01-23T12:08:38.431Z,15.25
2019-01-23T12:11:10.690Z,14.25
2019-01-23T12:13:38.806Z,15.40
2019-01-23T12:16:08.595Z,15.23
2019-01-23T12:18:36.439Z,15.40
2019-01-23T12:21:04.387Z,15.95
2019-01-23T12:23:32.289Z,17.32
2019-01-23T12:26:01.006Z,17.20
2019-01-23T12:28:28.855Z,17.67
2019-01-23T12:30:58.186Z,19.52
2019-01-23T12:33:26.109Z,17.62
2019-01-23T12:35:55.625Z,17.35
2019-01-23T12:38:24.863Z,16.45
2019-01-23T12:40:52.912Z,17.10
2019-01-23T12:43:21.874Z,18.25
2019-01-23T12:45:49.895Z,18.80
2019-01-23T12:48:17.834Z,20.32
2019-01-23T12:50:45.691Z,20.30
2019-01-23T12:53:13.805Z,19.40
2019-01-23T12:55:41.975Z,44.03
2019-01-23T12:58:10.170Z,22.58
2019-01-23T13:00:38.669Z,20.50
2019-01-23T13:03:08.827Z,18.85
2019-01-23T13:05:36.661Z,18.05
2019-01-23T13:08:04.919Z,22.70
2019-01-23T13:10:32.623Z,24.30
2019-01-23T13:13:00.398Z,22.35
2019-01-23T13:15:28.610Z,21.50
2019-01-23T13:17:57.546Z,18.15
2019-01-23T13:20:26.852Z,19.50
2019-01-23T13:22:55.031Z,18.10
2019-01-23T13:25:27.457Z,21.23
2019-01-23T13:27:57.532Z,22.10
2019-01-23T13:30:26.250Z,22.75
2019-01-23T13:32:54.309Z,22.85
2019-01-23T13:35:25.873Z,24.47
2019-01-23T13:37:55.014Z,20.85
2019-01-23T13:40:34.350Z,21.25
2019-01-23T13:43:05.771Z,20.10
2019-01-23T13:45:33.642Z,17.75
2019-01-23T13:48:03.855Z,18.67
2019-01-23T13:50:31.798Z,16.65
2019-01-23T13:52:59.563Z,19.40
2019-01-23T13:55:28.583Z,16.15
2019-01-23T13:57:56.513Z,16.02
2019-01-23T14:00:31.760Z,14.98
2019-01-23T14:02:59.815Z,14.25
2019-01-23T14:05:30.173Z,16.90
2019-01-23T14:07:58.306Z,14.80
2019-01-23T14:10:26.225Z,15.15
2019-01-23T14:12:54.293Z,13.83
2019-01-23T14:15:29.434Z,13.83
2019-01-23T14:17:57.439Z,14.98
2019-01-23T14:20:25.332Z,17.82
2019-01-23T14:22:53.202Z,15.78
2019-01-23T14:25:21.177Z,16.97
2019-01-23T14:27:49.082Z,14.98
2019-01-23T14:30:20.652Z,16.48
2019-01-23T14:32:48.539Z,14.58
2019-01-23T14:35:17.842Z,14.25
2019-01-23T14:37:47.838Z,18.15
2019-01-23T14:40:17.869Z,16.73
2019-01-23T14:42:45.934Z,13.18
2019-01-23T14:45:17.074Z,14.78
2019-01-23T14:47:45.467Z,15.80
2019-01-23T14:50:13.446Z,14.75
2019-01-23T14:52:42.048Z,15.55
2019-01-23T14:55:10.073Z,15.55
2019-01-23T14:57:38.282Z,16.57
2019-01-23T15:00:11.269Z,22.93
2019-01-23T15:02:39.121Z,24.00
2019-01-23T15:05:07.546Z,26.45
2019-01-23T15:07:35.372Z,27.02
2019-01-23T15:10:04.650Z,26.02
2019-01-23T15:12:32.341Z,26.48
2019-01-23T15:15:00.093Z,26.68
2019-01-23T15:17:28.046Z,27.40
2019-01-23T15:19:55.882Z,27.37
2019-01-23T15:22:23.691Z,24.95
2019-01-23T15:24:51.635Z,27.55
2019-01-23T15:27:21.508Z,26.40
2019-01-23T15:29:49.415Z,30.55
2019-01-23T15:32:18.447Z,26.02
2019-01-23T15:34:46.623Z,21.07
2019-01-23T15:37:16.639Z,21.10
2019-01-23T15:39:44.546Z,18.98
2019-01-23T15:42:12.382Z,18.00
2019-01-23T15:44:42.932Z,19.73
2019-01-23T15:47:11.071Z,20.17
2019-01-23T15:49:38.930Z,17.75
2019-01-23T15:52:06.615Z,19.30
2019-01-23T15:54:34.762Z,19.55
2019-01-23T15:57:08.761Z,21.48
2019-01-23T15:59:36.463Z,16.70
2019-01-23T16:02:08.504Z,17.27
2019-01-23T16:04:36.350Z,54.18
2019-01-23T16:07:05.642Z,50.03
2019-01-23T16:09:33.700Z,27.60
2019-01-23T16:12:02.110Z,23.02
2019-01-23T16:14:31.126Z,34.30
2019-01-23T16:16:59.188Z,22.02
2019-01-23T16:19:27.323Z,22.45
2019-01-23T16:21:55.444Z,20.15
2019-01-23T16:24:23.359Z,23.38
2019-01-23T16:26:51.155Z,19.37
2019-01-23T16:29:19.934Z,20.97
2019-01-23T16:31:48.965Z,25.30
2019-01-23T16:34:16.968Z,26.60
2019-01-23T16:36:44.659Z,31.15
2019-01-23T16:39:13.844Z,27.07
2019-01-23T16:41:41.756Z,26.70
2019-01-23T16:44:09.789Z,26.07
2019-01-23T16:46:37.778Z,37.25
2019-01-23T16:49:09.046Z,29.75
2019-01-23T16:51:36.698Z,26.02
2019-01-23T16:54:04.764Z,35.98
2019-01-23T16:56:33.939Z,41.40
2019-01-23T16:59:04.434Z,25.62
2019-01-23T17:01:32.445Z,21.90
2019-01-23T17:04:00.223Z,28.98
2019-01-23T17:06:27.992Z,26.02
2019-01-23T17:08:56.135Z,25.20
2019-01-23T17:11:24.011Z,24.98
2019-01-23T17:13:52.102Z,21.93
2019-01-23T17:16:23.816Z,23.67
2019-01-23T17:18:51.523Z,24.47
2019-01-23T17:21:22.036Z,30.25
2019-01-23T17:23:49.707Z,21.90
2019-01-23T17:26:20.935Z,21.48
2019-01-23T17:28:48.819Z,20.48
2019-01-23T17:31:20.847Z,26.42
2019-01-23T17:33:49.351Z,26.97
2019-01-23T17:36:17.315Z,22.67
2019-01-23T17:38:45.226Z,28.05
2019-01-23T17:41:15.198Z,19.77
2019-01-23T17:43:43.474Z,19.60
2019-01-23T17:46:12.467Z,26.17
2019-01-23T17:48:41.635Z,17.75
2019-01-23T17:51:09.330Z,26.05
2019-01-23T17:53:37.280Z,21.57
2019-01-23T17:56:09.781Z,20.52
2019-01-23T17:58:38.411Z,20.55
2019-01-23T18:01:06.394Z,21.35
2019-01-23T18:03:34.417Z,24.63
2019-01-23T18:06:04.685Z,28.85
2019-01-23T18:08:32.595Z,18.92
2019-01-23T18:11:01.442Z,22.35
2019-01-23T18:13:29.346Z,18.92
2019-01-23T18:16:03.172Z,19.73
2019-01-23T18:18:31.206Z,18.73
2019-01-23T18:20:59.047Z,17.42
2019-01-23T18:23:26.825Z,15.08
2019-01-23T18:25:54.643Z,15.20
2019-01-23T18:28:22.838Z,15.40
2019-01-23T18:31:01.877Z,16.05
2019-01-23T18:33:39.416Z,18.75
2019-01-23T18:36:39.147Z,14.50
2019-01-23T18:40:03.402Z,15.60
2019-01-23T18:42:44.818Z,14.95
2019-01-23T18:45:47.370Z,15.40
2019-01-23T18:48:45.634Z,17.17
2019-01-23T18:51:43.788Z,17.00
2019-01-23T18:54:12.722Z,17.57
2019-01-23T18:56:40.855Z,16.95
2019-01-23T18:59:09.828Z,15.25
2019-01-23T19:01:38.003Z,13.38
2019-01-23T19:04:06.207Z,16.32
2019-01-23T19:06:34.922Z,16.07
2019-01-23T19:09:08.524Z,17.67
2019-01-23T19:11:36.571Z,13.83
2019-01-23T19:14:05.352Z,20.05
2019-01-23T19:16:36.060Z,16.27
2019-01-23T19:19:04.570Z,16.77
2019-01-23T19:21:32.377Z,17.30
2019-01-23T19:24:00.667Z,19.62
2019-01-23T19:26:28.386Z,19.20
2019-01-23T19:28:56.569Z,19.52
2019-01-23T19:31:24.501Z,20.10
2019-01-23T19:33:52.316Z,18.30
2019-01-23T19:36:20.170Z,31.77
2019-01-23T19:38:47.953Z,27.45
2019-01-23T19:41:20.380Z,20.60
2019-01-23T19:43:46.232Z,20.05
2019-01-23T19:46:14.039Z,16.93
2019-01-23T19:48:41.985Z,17.20
2019-01-23T19:51:10.776Z,19.80
2019-01-23T19:53:38.578Z,20.37
2019-01-23T19:56:06.454Z,20.48
2019-01-23T19:58:34.247Z,22.17
2019-01-23T20:01:02.207Z,21.15
2019-01-23T20:03:31.204Z,18.92
2019-01-23T20:06:00.665Z,19.05
2019-01-23T20:08:28.655Z,20.37
2019-01-23T20:10:57.579Z,15.93
2019-01-23T20:13:25.555Z,17.10
2019-01-23T20:15:53.533Z,18.42
2019-01-23T20:18:21.745Z,15.65
2019-01-23T20:20:49.475Z,18.15
2019-01-23T20:23:17.381Z,18.42
2019-01-23T20:25:45.210Z,19.00
2019-01-23T20:28:15.224Z,21.20
2019-01-23T20:30:44.558Z,17.40
2019-01-23T20:33:14.685Z,15.98
2019-01-23T20:35:42.680Z,16.30
2019-01-23T20:38:10.655Z,14.25
2019-01-23T20:40:39.031Z,16.23
2019-01-23T20:43:07.370Z,15.00
2019-01-23T20:45:35.258Z,16.00
2019-01-23T20:48:05.598Z,16.87
2019-01-23T20:50:33.427Z,15.68
2019-01-23T20:53:01.223Z,15.60
2019-01-23T20:55:29.103Z,17.60
2019-01-23T20:57:57.365Z,18.35
2019-01-23T21:00:27.738Z,16.70
2019-01-23T21:02:56.536Z,15.05
2019-01-23T21:05:24.734Z,18.12
2019-01-23T21:07:53.778Z,16.30
2019-01-23T21:10:23.695Z,17.30
2019-01-23T21:12:52.832Z,15.70
2019-01-23T21:15:22.815Z,15.53
2019-01-23T21:17:51.669Z,15.95
2019-01-23T21:20:19.649Z,17.45
2019-01-23T21:22:47.808Z,17.92
2019-01-23T21:25:15.752Z,17.52
2019-01-23T21:27:44.824Z,18.60
2019-01-23T21:30:20.665Z,23.30
2019-01-23T21:32:54.364Z,25.65
2019-01-23T21:35:22.692Z,25.23
2019-01-23T21:37:52.634Z,22.02
2019-01-23T21:40:23.938Z,22.37
2019-01-23T21:42:55.031Z,22.87
2019-01-23T21:45:22.829Z,23.92
2019-01-23T21:47:51.253Z,21.87
2019-01-23T21:50:22.773Z,23.27
2019-01-23T21:52:50.439Z,22.27
2019-01-23T21:55:20.413Z,23.35
2019-01-23T21:57:48.598Z,26.33
2019-01-23T22:00:22.326Z,23.60
2019-01-23T22:02:53.220Z,24.87
2019-01-23T22:05:21.018Z,21.70
2019-01-23T22:07:50.820Z,22.17
2019-01-23T22:10:18.710Z,22.65
2019-01-23T22:12:46.729Z,25.08
2019-01-23T22:15:16.074Z,23.50
2019-01-23T22:17:43.958Z,26.55
2019-01-23T22:20:14.244Z,24.18
2019-01-23T22:22:46.650Z,21.17
2019-01-23T22:25:16.422Z,22.77
2019-01-23T22:27:44.226Z,20.48
2019-01-23T22:30:17.814Z,20.00
2019-01-23T22:32:45.911Z,18.32
2019-01-23T22:35:14.020Z,20.12
2019-01-23T22:37:44.305Z,17.15
2019-01-23T22:40:13.750Z,15.72
2019-01-23T22:42:41.555Z,14.55
2019-01-23T22:45:12.161Z,11.60
2019-01-23T22:47:40.158Z,12.55
2019-01-23T22:50:10.990Z,9.85
2019-01-23T22:52:39.730Z,11.48
2019-01-23T22:55:08.738Z,11.30
2019-01-23T22:57:36.520Z,13.20
2019-01-23T23:00:14.124Z,12.33
2019-01-23T23:02:47.582Z,12.73
2019-01-23T23:05:15.705Z,12.23
2019-01-23T23:07:43.537Z,12.20
2019-01-23T23:10:11.565Z,13.78
2019-01-23T23:12:39.575Z,13.90
2019-01-23T23:15:08.608Z,14.20
2019-01-23T23:17:36.563Z,12.58
2019-01-23T23:20:05.122Z,11.95
2019-01-23T23:22:33.151Z,8.70
2019-01-23T23:25:00.987Z,12.47
2019-01-23T23:27:30.018Z,8.38
2019-01-23T23:29:57.974Z,13.03
2019-01-23T23:32:25.824Z,15.55
2019-01-23T23:34:59.004Z,17.32
2019-01-23T23:37:26.713Z,19.40
2019-01-23T23:39:55.388Z,18.60
2019-01-23T23:42:23.423Z,16.67
2019-01-23T23:44:52.161Z,16.15
2019-01-23T23:47:19.906Z,13.58
2019-01-23T23:49:47.862Z,14.40
2019-01-23T23:52:19.498Z,13.20
2019-01-23T23:54:47.295Z,13.15
2019-01-23T23:57:15.083Z,12.35
2019-01-23T23:59:43.489Z,12.07
